Time;durP1;ratioP1;P1;durP2;ratioP2;P2;SDS_P1;SDS_P2;PMS_P1;PMS_P2;Temp;Humidity;BMP_temperature;BMP_pressure;BME280_temperature;BME280_humidity;BME280_pressure;Samples;Min_cycle;Max_cycle;Signal;HPM_P1;HPM_P2
2023/09/26 00:00:41;;;;;;;;;;;19.30;63.90;;;;;;5113616;28;19937;-54
2023/09/26 00:03:07;;;;;;;;;;;19.30;63.80;;;;;;5113623;28;19912;-55
2023/09/26 00:05:32;;;;;;;;;;;19.30;63.90;;;;;;5113895;28;19915;-55
2023/09/26 00:08:03;;;;;;;;;;;19.30;63.90;;;;;;5113546;28;20338;-54
2023/09/26 00:10:28;;;;;;;;;;;19.30;63.90;;;;;;5113867;28;19907;-56
2023/09/26 00:12:54;;;;;;;;;;;19.30;64.00;;;;;;5113373;28;19957;-56
2023/09/26 00:15:19;;;;;;;;;;;19.30;64.00;;;;;;5095094;28;20287;-54
2023/09/26 00:17:45;;;;;;;;;;;19.30;64.00;;;;;;5113541;28;19908;-55
2023/09/26 00:20:12;;;;;;;;;;;19.20;63.90;;;;;;5095100;28;20423;-55
2023/09/26 00:22:38;;;;;;;;;;;19.20;63.90;;;;;;5113411;28;19908;-55
2023/09/26 00:25:03;;;;;;;;;;;19.20;63.80;;;;;;5095106;28;20290;-54
2023/09/26 00:27:29;;;;;;;;;;;19.20;63.80;;;;;;5095061;28;19964;-54
2023/09/26 00:29:54;;;;;;;;;;;19.30;63.90;;;;;;5113282;28;19908;-56
2023/09/26 00:32:20;;;;;;;;;;;19.30;63.90;;;;;;5113337;28;19920;-56
2023/09/26 00:34:45;;;;;;;;;;;19.20;63.90;;;;;;5113242;28;19911;-54
2023/09/26 00:37:11;;;;;;;;;;;19.20;63.80;;;;;;5095081;28;20364;-55
2023/09/26 00:39:37;;;;;;;;;;;19.20;63.90;;;;;;5117367;28;20288;-55
2023/09/26 00:42:02;;;;;;;;;;;19.20;63.90;;;;;;5117564;28;19908;-55
2023/09/26 00:44:28;;;;;;;;;;;19.20;63.90;;;;;;5117396;28;19908;-55
2023/09/26 00:46:53;;;;;;;;;;;19.20;63.90;;;;;;5117264;28;19908;-56
2023/09/26 00:49:19;;;;;;;;;;;19.20;64.00;;;;;;5117269;28;19911;-55
2023/09/26 00:51:44;;;;;;;;;;;19.20;63.90;;;;;;5117056;28;20014;-54
2023/09/26 00:54:10;;;;;;;;;;;19.20;63.90;;;;;;5117098;28;20394;-54
2023/09/26 00:56:36;;;;;;;;;;;19.20;63.80;;;;;;5117155;28;20053;-55
2023/09/26 00:59:02;;;;;;;;;;;19.20;63.90;;;;;;5098638;28;19956;-55
2023/09/26 01:01:29;;;;;;;;;;;19.20;63.90;;;;;;5116952;28;19998;-54
2023/09/26 01:03:54;;;;;;;;;;;19.20;63.80;;;;;;5116867;28;19908;-55
2023/09/26 01:06:20;;;;;;;;;;;19.20;64.60;;;;;;5098907;28;19915;-55
2023/09/26 01:08:45;;;;;;;;;;;19.20;63.80;;;;;;5116866;28;19908;-54
2023/09/26 01:11:11;;;;;;;;;;;19.20;63.80;;;;;;5116901;28;19908;-55
2023/09/26 01:13:37;;;;;;;;;;;19.20;63.80;;;;;;5116734;28;19912;-55
2023/09/26 01:16:15;;;;;;;;;;;19.20;63.80;;;;;;5116794;28;19907;-55
2023/09/26 01:18:40;;;;;;;;;;;19.20;63.80;;;;;;5116691;28;19947;-55
2023/09/26 01:21:06;;;;;;;;;;;19.20;63.90;;;;;;5116661;28;19912;-55
2023/09/26 01:23:31;;;;;;;;;;;19.20;63.80;;;;;;5116569;28;19911;-55
2023/09/26 01:25:57;;;;;;;;;;;19.20;63.90;;;;;;5098315;28;19954;-55
2023/09/26 01:28:22;;;;;;;;;;;19.10;63.80;;;;;;5116555;28;19907;-54
2023/09/26 01:30:48;;;;;;;;;;;19.10;63.80;;;;;;5116392;28;19960;-55
2023/09/26 01:33:16;;;;;;;;;;;19.10;63.90;;;;;;5116460;28;19908;-55
2023/09/26 01:35:44;;;;;;;;;;;19.10;63.90;;;;;;5116741;28;19947;-54
2023/09/26 01:38:10;;;;;;;;;;;19.10;63.90;;;;;;5116299;28;19915;-54
2023/09/26 01:40:35;;;;;;;;;;;19.10;63.90;;;;;;5098155;28;19907;-55
2023/09/26 01:43:01;;;;;;;;;;;19.10;63.80;;;;;;5116100;28;19907;-56
2023/09/26 01:45:26;;;;;;;;;;;19.10;63.90;;;;;;5116246;28;19908;-55
2023/09/26 01:47:52;;;;;;;;;;;19.10;63.90;;;;;;5116101;28;19915;-55
2023/09/26 01:50:17;;;;;;;;;;;19.10;63.80;;;;;;5114960;28;19951;-55
2023/09/26 01:52:43;;;;;;;;;;;19.10;63.80;;;;;;5116095;28;19941;-54
2023/09/26 01:55:13;;;;;;;;;;;19.10;63.80;;;;;;5115894;28;19954;-54
2023/09/26 01:57:38;;;;;;;;;;;19.10;63.80;;;;;;5115971;28;20431;-55
2023/09/26 02:00:11;;;;;;;;;;;19.10;63.90;;;;;;5116079;28;19954;-55
2023/09/26 02:02:40;;;;;;;;;;;19.10;63.90;;;;;;5115862;28;19914;-55
2023/09/26 02:05:07;;;;;;;;;;;19.10;63.90;;;;;;5115900;28;19912;-55
2023/09/26 02:07:32;;;;;;;;;;;19.10;63.90;;;;;;5097701;28;20299;-55
2023/09/26 02:09:58;;;;;;;;;;;19.10;63.90;;;;;;5115911;28;19908;-55
2023/09/26 02:12:26;;;;;;;;;;;19.10;63.80;;;;;;5115698;28;19914;-54
2023/09/26 02:14:51;;;;;;;;;;;19.10;63.90;;;;;;5115575;28;20355;-53
2023/09/26 02:17:17;;;;;;;;;;;19.00;63.80;;;;;;5115649;28;19914;-54
2023/09/26 02:19:42;;;;;;;;;;;19.10;63.90;;;;;;5115505;28;19947;-53
2023/09/26 02:22:08;;;;;;;;;;;19.00;63.80;;;;;;5115462;28;20383;-54
2023/09/26 02:24:33;;;;;;;;;;;19.00;63.80;;;;;;5115817;28;19908;-54
2023/09/26 02:26:59;;;;;;;;;;;19.00;64.60;;;;;;5115631;28;19912;-53
2023/09/26 02:29:26;;;;;;;;;;;19.00;63.80;;;;;;5115439;28;19908;-54
2023/09/26 02:31:51;;;;;;;;;;;19.00;63.80;;;;;;5115356;28;19908;-54
2023/09/26 02:34:17;;;;;;;;;;;19.00;63.70;;;;;;5115265;28;19912;-54
2023/09/26 02:36:42;;;;;;;;;;;19.00;63.70;;;;;;5115218;28;20415;-53
2023/09/26 02:39:08;;;;;;;;;;;19.00;63.80;;;;;;5115052;28;20260;-53
2023/09/26 02:41:33;;;;;;;;;;;19.00;63.70;;;;;;5115143;28;19911;-55
2023/09/26 02:43:59;;;;;;;;;;;19.00;63.80;;;;;;5115119;28;19912;-54
2023/09/26 02:46:24;;;;;;;;;;;19.00;63.70;;;;;;5096701;28;19957;-54
2023/09/26 02:48:49;;;;;;;;;;;19.00;63.70;;;;;;5114920;28;19908;-53
2023/09/26 02:51:15;;;;;;;;;;;19.00;63.70;;;;;;5114690;28;19959;-53
2023/09/26 02:53:40;;;;;;;;;;;19.00;63.70;;;;;;5115175;28;19912;-53
2023/09/26 02:56:09;;;;;;;;;;;19.00;63.70;;;;;;5114744;28;20003;-54
2023/09/26 02:58:35;;;;;;;;;;;19.00;63.70;;;;;;5114839;28;19908;-54
2023/09/26 03:01:00;;;;;;;;;;;19.00;63.70;;;;;;5114427;28;19915;-53
2023/09/26 03:03:26;;;;;;;;;;;18.90;63.50;;;;;;5114625;28;20329;-54
2023/09/26 03:05:52;;;;;;;;;;;18.90;63.50;;;;;;5114696;28;19908;-54
2023/09/26 03:08:17;;;;;;;;;;;18.90;63.50;;;;;;5114635;28;19961;-53
2023/09/26 03:10:43;;;;;;;;;;;18.90;63.50;;;;;;5114578;28;19908;-54
2023/09/26 03:13:08;;;;;;;;;;;18.90;63.50;;;;;;5114382;28;19912;-54
2023/09/26 03:15:34;;;;;;;;;;;18.90;63.50;;;;;;5114749;28;20423;-54
2023/09/26 03:18:00;;;;;;;;;;;18.90;63.50;;;;;;5114395;28;19908;-54
2023/09/26 03:20:25;;;;;;;;;;;18.90;63.50;;;;;;5114274;28;20006;-53
2023/09/26 03:22:51;;;;;;;;;;;18.90;63.50;;;;;;5114271;28;19952;-53
2023/09/26 03:25:16;;;;;;;;;;;18.90;63.50;;;;;;5114186;28;19908;-53
2023/09/26 03:27:42;;;;;;;;;;;18.90;63.60;;;;;;5114177;28;19914;-53
2023/09/26 03:30:08;;;;;;;;;;;18.90;63.60;;;;;;5095837;28;20048;-53
2023/09/26 03:32:33;;;;;;;;;;;18.90;63.50;;;;;;5114003;28;19908;-54
2023/09/26 03:34:59;;;;;;;;;;;18.90;63.50;;;;;;5113832;28;19915;-53
2023/09/26 03:37:24;;;;;;;;;;;18.90;63.60;;;;;;5095576;28;19907;-54
2023/09/26 03:39:49;;;;;;;;;;;18.90;63.50;;;;;;5113849;28;20279;-53
2023/09/26 03:42:15;;;;;;;;;;;18.90;63.60;;;;;;5113765;28;19907;-53
2023/09/26 03:44:43;;;;;;;;;;;18.80;63.50;;;;;;5113698;28;19918;-54
2023/09/26 03:47:09;;;;;;;;;;;18.90;63.60;;;;;;5113794;28;20039;-53
2023/09/26 03:49:34;;;;;;;;;;;18.80;63.50;;;;;;5113759;28;20075;-54
2023/09/26 03:52:00;;;;;;;;;;;18.80;63.50;;;;;;5113252;28;19926;-54
2023/09/26 03:54:26;;;;;;;;;;;18.80;63.50;;;;;;5113473;28;19919;-53
2023/09/26 03:56:52;;;;;;;;;;;18.80;63.60;;;;;;5113593;28;20283;-54
2023/09/26 03:59:17;;;;;;;;;;;18.80;63.70;;;;;;5113659;28;19919;-53
2023/09/26 04:01:43;;;;;;;;;;;18.80;63.70;;;;;;5113499;28;20325;-54
2023/09/26 04:04:08;;;;;;;;;;;18.80;63.70;;;;;;5113413;28;19908;-54
2023/09/26 04:06:34;;;;;;;;;;;18.80;63.60;;;;;;5113540;28;19907;-54
2023/09/26 04:09:00;;;;;;;;;;;18.80;63.60;;;;;;5095294;28;19996;-54
2023/09/26 04:11:25;;;;;;;;;;;18.80;63.70;;;;;;5095024;28;19915;-54
2023/09/26 04:13:51;;;;;;;;;;;18.80;63.60;;;;;;5112591;28;19912;-53
2023/09/26 04:16:16;;;;;;;;;;;18.80;63.60;;;;;;5113421;28;19911;-54
2023/09/26 04:18:45;;;;;;;;;;;18.80;63.50;;;;;;5113269;28;19908;-53
2023/09/26 04:21:10;;;;;;;;;;;18.70;63.40;;;;;;5113274;28;20333;-55
2023/09/26 04:23:36;;;;;;;;;;;18.70;63.50;;;;;;5113237;28;20356;-54
2023/09/26 04:26:15;;;;;;;;;;;18.70;63.50;;;;;;5113565;28;19950;-54
2023/09/26 04:28:41;;;;;;;;;;;18.70;63.50;;;;;;5095010;28;19915;-54
2023/09/26 04:31:18;;;;;;;;;;;18.70;63.40;;;;;;5113083;28;19907;-55
2023/09/26 04:33:44;;;;;;;;;;;18.70;63.50;;;;;;5113161;28;19911;-53
2023/09/26 04:36:09;;;;;;;;;;;18.70;63.50;;;;;;5113086;28;19960;-54
2023/09/26 04:38:35;;;;;;;;;;;18.70;63.40;;;;;;5113232;28;19915;-53
2023/09/26 04:41:02;;;;;;;;;;;18.70;63.50;;;;;;5113014;28;20423;-54
2023/09/26 04:43:28;;;;;;;;;;;18.70;63.50;;;;;;5113117;28;19907;-53
2023/09/26 04:45:53;;;;;;;;;;;18.70;63.40;;;;;;5094804;28;19915;-55
2023/09/26 04:48:19;;;;;;;;;;;18.70;63.50;;;;;;5112962;28;19912;-53
2023/09/26 04:50:44;;;;;;;;;;;18.70;63.50;;;;;;5112893;28;20408;-54
2023/09/26 04:53:10;;;;;;;;;;;18.70;63.50;;;;;;5112947;28;19904;-54
2023/09/26 04:55:36;;;;;;;;;;;18.70;63.40;;;;;;5112747;28;20329;-54
2023/09/26 04:58:01;;;;;;;;;;;18.70;63.50;;;;;;5094682;28;19961;-53
2023/09/26 05:00:31;;;;;;;;;;;18.60;63.40;;;;;;5094758;28;20325;-54
2023/09/26 05:02:56;;;;;;;;;;;18.60;63.40;;;;;;5095030;28;19961;-53
2023/09/26 05:05:21;;;;;;;;;;;18.60;63.40;;;;;;5094599;28;20364;-54
2023/09/26 05:07:49;;;;;;;;;;;18.60;63.40;;;;;;5112703;28;19915;-54
2023/09/26 05:10:14;;;;;;;;;;;18.70;63.50;;;;;;5112927;28;19908;-54
2023/09/26 05:12:43;;;;;;;;;;;18.60;63.30;;;;;;5112811;28;19915;-53
2023/09/26 05:15:12;;;;;;;;;;;18.60;63.30;;;;;;5112748;28;20393;-54
2023/09/26 05:17:41;;;;;;;;;;;18.60;63.30;;;;;;5112733;28;20261;-54
2023/09/26 05:20:09;;;;;;;;;;;18.60;63.70;;;;;;5112727;28;19908;-53
2023/09/26 05:22:35;;;;;;;;;;;18.70;63.30;;;;;;5112752;28;19961;-54
2023/09/26 05:25:00;;;;;;;;;;;18.60;63.10;;;;;;5115443;28;19908;-54
2023/09/26 05:27:25;;;;;;;;;;;18.60;63.10;;;;;;5116313;28;19907;-54
2023/09/26 05:29:51;;;;;;;;;;;18.60;63.10;;;;;;5116336;28;19914;-54
2023/09/26 05:32:16;;;;;;;;;;;18.60;63.20;;;;;;5098099;28;20437;-53
2023/09/26 05:34:42;;;;;;;;;;;18.60;63.10;;;;;;5116156;28;20337;-54
2023/09/26 05:37:09;;;;;;;;;;;18.60;63.10;;;;;;5097987;28;19951;-54
2023/09/26 05:39:34;;;;;;;;;;;18.60;63.10;;;;;;5116260;28;19947;-53
2023/09/26 05:42:01;;;;;;;;;;;18.60;63.10;;;;;;5116081;28;19915;-54
2023/09/26 05:44:26;;;;;;;;;;;18.60;63.10;;;;;;5116135;28;19908;-54
2023/09/26 05:46:52;;;;;;;;;;;18.60;63.10;;;;;;5116114;28;19954;-55
2023/09/26 05:49:17;;;;;;;;;;;18.60;63.10;;;;;;5116074;28;19916;-54
2023/09/26 05:51:43;;;;;;;;;;;18.60;63.10;;;;;;5097681;28;19924;-53
2023/09/26 05:54:08;;;;;;;;;;;18.60;63.00;;;;;;5115776;28;19919;-54
2023/09/26 05:56:34;;;;;;;;;;;18.60;63.00;;;;;;5115785;28;19931;-54
2023/09/26 05:58:59;;;;;;;;;;;18.60;63.00;;;;;;5115746;28;19912;-54
2023/09/26 06:01:25;;;;;;;;;;;18.60;63.10;;;;;;5115819;28;19908;-53
2023/09/26 06:03:50;;;;;;;;;;;18.60;63.10;;;;;;5116109;28;19915;-54
2023/09/26 06:06:16;;;;;;;;;;;18.60;63.20;;;;;;5115651;28;19915;-53
2023/09/26 06:08:41;;;;;;;;;;;18.60;63.20;;;;;;5115633;28;20006;-54
2023/09/26 06:11:09;;;;;;;;;;;18.60;63.20;;;;;;5115502;28;20314;-54
2023/09/26 06:13:34;;;;;;;;;;;18.60;63.20;;;;;;5115344;28;19908;-54
2023/09/26 06:16:03;;;;;;;;;;;18.60;63.20;;;;;;5115426;28;19915;-54
2023/09/26 06:18:28;;;;;;;;;;;18.60;63.20;;;;;;5115438;28;20011;-54
2023/09/26 06:20:54;;;;;;;;;;;18.60;63.30;;;;;;5115400;28;19994;-56
2023/09/26 06:23:19;;;;;;;;;;;18.60;63.20;;;;;;5115394;28;19916;-54
2023/09/26 06:25:45;;;;;;;;;;;18.60;64.10;;;;;;5097044;28;19908;-53
2023/09/26 06:28:10;;;;;;;;;;;18.60;63.30;;;;;;5115218;28;19915;-54
2023/09/26 06:30:36;;;;;;;;;;;18.50;63.20;;;;;;5115282;28;19912;-54
2023/09/26 06:33:01;;;;;;;;;;;18.50;63.20;;;;;;5115074;28;20002;-54
2023/09/26 06:35:30;;;;;;;;;;;18.50;63.20;;;;;;5096086;28;19912;-54
2023/09/26 06:37:55;;;;;;;;;;;18.50;63.30;;;;;;5114937;28;19908;-54
2023/09/26 06:40:21;;;;;;;;;;;18.50;63.30;;;;;;5114812;28;20076;-54
2023/09/26 06:42:47;;;;;;;;;;;18.50;63.30;;;;;;5114940;28;19974;-53
2023/09/26 06:45:13;;;;;;;;;;;18.50;63.40;;;;;;5096661;28;19908;-54
2023/09/26 06:47:39;;;;;;;;;;;18.50;63.40;;;;;;5096330;28;19907;-54
2023/09/26 06:50:05;;;;;;;;;;;18.60;63.40;;;;;;5114675;28;20279;-54
2023/09/26 06:52:31;;;;;;;;;;;18.60;63.30;;;;;;5114638;28;20299;-54
2023/09/26 06:54:56;;;;;;;;;;;18.60;64.20;;;;;;5114558;28;19956;-54
2023/09/26 06:57:26;;;;;;;;;;;18.60;63.50;;;;;;5114552;28;19960;-53
2023/09/26 06:59:51;;;;;;;;;;;18.60;63.60;;;;;;5114530;28;19911;-54
2023/09/26 07:02:17;;;;;;;;;;;18.50;63.40;;;;;;5114416;28;20022;-54
2023/09/26 07:04:42;;;;;;;;;;;18.50;63.50;;;;;;5114340;28;20257;-53
2023/09/26 07:07:08;;;;;;;;;;;18.50;63.40;;;;;;5114400;28;19912;-54
2023/09/26 07:09:33;;;;;;;;;;;18.50;63.60;;;;;;5114376;28;19999;-54
2023/09/26 07:11:59;;;;;;;;;;;18.60;63.60;;;;;;5114362;28;20317;-54
2023/09/26 07:14:24;;;;;;;;;;;18.50;63.50;;;;;;5114135;28;19934;-54
2023/09/26 07:16:51;;;;;;;;;;;18.60;63.70;;;;;;5114224;28;19912;-54
2023/09/26 07:19:17;;;;;;;;;;;18.50;63.50;;;;;;5114305;28;19984;-54
2023/09/26 07:21:42;;;;;;;;;;;18.60;63.70;;;;;;5095934;28;20417;-54
2023/09/26 07:24:08;;;;;;;;;;;18.60;63.70;;;;;;5113915;28;20256;-54
2023/09/26 07:26:34;;;;;;;;;;;18.50;63.70;;;;;;5114077;28;20268;-54
2023/09/26 07:29:00;;;;;;;;;;;18.50;63.70;;;;;;5113952;28;19919;-54
2023/09/26 07:31:26;;;;;;;;;;;18.50;63.70;;;;;;5113846;28;19908;-54
2023/09/26 07:33:51;;;;;;;;;;;18.60;63.90;;;;;;5113889;28;19957;-53
2023/09/26 07:36:17;;;;;;;;;;;18.60;63.80;;;;;;5095642;28;19907;-53
2023/09/26 07:38:43;;;;;;;;;;;18.60;63.90;;;;;;5114012;28;19907;-54
2023/09/26 07:41:09;;;;;;;;;;;18.60;63.80;;;;;;5113910;28;19915;-54
2023/09/26 07:43:34;;;;;;;;;;;18.60;64.00;;;;;;5095425;28;19908;-54
2023/09/26 07:46:06;;;;;;;;;;;18.60;64.00;;;;;;5113838;28;19912;-54
2023/09/26 07:48:32;;;;;;;;;;;18.60;64.00;;;;;;5112791;28;19907;-54
2023/09/26 07:50:58;;;;;;;;;;;18.60;64.00;;;;;;5113433;28;20342;-54
2023/09/26 07:53:24;;;;;;;;;;;18.60;64.10;;;;;;5095253;28;19908;-54
2023/09/26 07:55:49;;;;;;;;;;;18.60;64.00;;;;;;5095126;28;19915;-54
2023/09/26 07:58:15;;;;;;;;;;;18.60;64.10;;;;;;5113690;28;20371;-54
2023/09/26 08:00:41;;;;;;;;;;;18.60;64.10;;;;;;5113432;28;19955;-54
2023/09/26 08:03:06;;;;;;;;;;;18.60;64.00;;;;;;5113399;28;19907;-54
2023/09/26 08:05:31;;;;;;;;;;;18.60;64.10;;;;;;5113725;28;19908;-54
2023/09/26 08:07:58;;;;;;;;;;;18.60;64.30;;;;;;5113417;28;19914;-53
2023/09/26 08:10:24;;;;;;;;;;;18.60;64.40;;;;;;5113254;28;20005;-54
2023/09/26 08:12:49;;;;;;;;;;;18.60;64.50;;;;;;5113431;28;20440;-53
2023/09/26 08:15:15;;;;;;;;;;;18.60;64.30;;;;;;5113480;28;19973;-53
2023/09/26 08:17:40;;;;;;;;;;;18.60;64.10;;;;;;5113274;28;19911;-53
2023/09/26 08:20:06;;;;;;;;;;;18.60;64.40;;;;;;5113203;28;20380;-54
2023/09/26 08:22:31;;;;;;;;;;;18.60;64.30;;;;;;5113076;28;19908;-54
2023/09/26 08:24:57;;;;;;;;;;;18.60;64.30;;;;;;5113033;28;19914;-53
2023/09/26 08:27:24;;;;;;;;;;;18.60;64.60;;;;;;5113559;28;19907;-54
2023/09/26 08:29:50;;;;;;;;;;;18.70;64.60;;;;;;5113202;28;19908;-54
2023/09/26 08:32:15;;;;;;;;;;;18.70;64.20;;;;;;5112957;28;19908;-54
2023/09/26 08:34:41;;;;;;;;;;;18.70;64.60;;;;;;5113047;28;20325;-53
2023/09/26 08:37:06;;;;;;;;;;;18.70;64.60;;;;;;5113058;28;19923;-55
2023/09/26 08:39:32;;;;;;;;;;;18.60;64.70;;;;;;5113031;28;19950;-54
2023/09/26 08:41:58;;;;;;;;;;;18.70;65.10;;;;;;5112972;28;19915;-54
2023/09/26 08:44:24;;;;;;;;;;;18.70;65.00;;;;;;5094867;28;19907;-55
2023/09/26 08:46:49;;;;;;;;;;;18.70;65.10;;;;;;5112957;28;19919;-54
2023/09/26 08:49:15;;;;;;;;;;;18.70;65.10;;;;;;5094922;28;19908;-54
2023/09/26 08:51:40;;;;;;;;;;;18.70;65.10;;;;;;5112646;28;19927;-54
2023/09/26 08:54:05;;;;;;;;;;;18.70;65.00;;;;;;5112996;28;20052;-54
2023/09/26 08:56:32;;;;;;;;;;;18.80;65.20;;;;;;5112876;28;20379;-54
2023/09/26 08:58:57;;;;;;;;;;;18.90;64.60;;;;;;5114086;27;20009;-54
2023/09/26 09:01:23;;;;;;;;;;;18.90;64.90;;;;;;5098693;28;20410;-55
2023/09/26 09:03:48;;;;;;;;;;;18.90;64.40;;;;;;5116756;28;19994;-55
2023/09/26 09:06:14;;;;;;;;;;;18.90;64.50;;;;;;5098393;28;19908;-54
2023/09/26 09:08:39;;;;;;;;;;;18.80;64.70;;;;;;5116744;28;20411;-55
2023/09/26 09:11:05;;;;;;;;;;;18.80;64.80;;;;;;5116694;28;20343;-54
2023/09/26 09:13:31;;;;;;;;;;;18.90;64.60;;;;;;5116466;28;20304;-53
2023/09/26 09:16:09;;;;;;;;;;;18.90;64.50;;;;;;5116514;28;19907;-54
2023/09/26 09:18:35;;;;;;;;;;;19.10;65.10;;;;;;5116561;28;19955;-54
2023/09/26 09:21:00;;;;;;;;;;;19.20;64.70;;;;;;5116395;28;19915;-54
2023/09/26 09:23:26;;;;;;;;;;;19.20;64.10;;;;;;5116413;28;19907;-54
2023/09/26 09:25:51;;;;;;;;;;;19.10;63.90;;;;;;5116443;28;20374;-54
2023/09/26 09:28:20;;;;;;;;;;;19.00;64.40;;;;;;5098385;28;19957;-54
2023/09/26 09:30:46;;;;;;;;;;;19.10;64.60;;;;;;5116336;28;19908;-54
2023/09/26 09:33:15;;;;;;;;;;;19.10;64.50;;;;;;5116244;28;19915;-53
2023/09/26 09:35:41;;;;;;;;;;;19.10;64.10;;;;;;5097790;28;20379;-53
2023/09/26 09:38:12;;;;;;;;;;;19.10;63.90;;;;;;5098161;28;19908;-53
2023/09/26 09:40:38;;;;;;;;;;;19.20;63.80;;;;;;5097770;28;19996;-54
2023/09/26 09:43:03;;;;;;;;;;;19.40;63.40;;;;;;5098014;28;19966;-55
2023/09/26 09:45:29;;;;;;;;;;;19.60;63.00;;;;;;5116029;28;19918;-54
2023/09/26 09:47:55;;;;;;;;;;;19.70;62.50;;;;;;5115831;28;20393;-54
2023/09/26 09:50:20;;;;;;;;;;;19.90;62.20;;;;;;5116087;28;19915;-54
2023/09/26 09:52:48;;;;;;;;;;;19.90;61.60;;;;;;5115844;28;19931;-54
2023/09/26 09:55:21;;;;;;;;;;;19.80;61.70;;;;;;5115742;28;19911;-54
2023/09/26 09:57:48;;;;;;;;;;;20.00;61.70;;;;;;5115859;28;19998;-54
2023/09/26 10:00:14;;;;;;;;;;;20.30;61.10;;;;;;5097818;28;20008;-55
2023/09/26 10:02:39;;;;;;;;;;;20.60;60.30;;;;;;5115801;28;19913;-54
2023/09/26 10:05:07;;;;;;;;;;;20.90;59.60;;;;;;5115406;28;19908;-53
2023/09/26 10:07:32;;;;;;;;;;;20.80;59.50;;;;;;5097441;28;19963;-55
2023/09/26 10:09:58;;;;;;;;;;;20.60;59.80;;;;;;5114823;28;19970;-54
2023/09/26 10:12:25;;;;;;;;;;;20.40;60.30;;;;;;5114933;28;19908;-54
2023/09/26 10:14:50;;;;;;;;;;;20.40;60.70;;;;;;5097033;28;19922;-55
2023/09/26 10:17:17;;;;;;;;;;;20.50;60.70;;;;;;5115409;28;19994;-54
2023/09/26 10:19:42;;;;;;;;;;;20.50;60.50;;;;;;5115416;28;20279;-53
2023/09/26 10:22:14;;;;;;;;;;;20.50;60.50;;;;;;5115123;28;19915;-54
2023/09/26 10:24:48;;;;;;;;;;;20.60;60.30;;;;;;5115224;28;19907;-53
2023/09/26 10:27:21;;;;;;;;;;;20.60;60.40;;;;;;5115151;28;19907;-54
2023/09/26 10:29:47;;;;;;;;;;;20.60;60.60;;;;;;5115374;28;19912;-53
2023/09/26 10:32:14;;;;;;;;;;;20.70;60.40;;;;;;5096967;28;19908;-54
2023/09/26 10:34:40;;;;;;;;;;;20.80;60.00;;;;;;5097065;28;19912;-54
2023/09/26 10:37:06;;;;;;;;;;;20.80;60.20;;;;;;5096539;28;20272;-54
2023/09/26 10:39:40;;;;;;;;;;;20.80;60.40;;;;;;5115016;28;19914;-55
2023/09/26 10:42:13;;;;;;;;;;;20.80;60.60;;;;;;5096660;28;19995;-55
2023/09/26 10:44:43;;;;;;;;;;;20.70;60.90;;;;;;5114841;28;19907;-54
2023/09/26 10:47:09;;;;;;;;;;;20.80;61.20;;;;;;5121483;28;19943;-54
2023/09/26 10:49:35;;;;;;;;;;;20.80;61.20;;;;;;5114649;28;19915;-55
2023/09/26 10:52:03;;;;;;;;;;;20.80;61.50;;;;;;5114630;28;20291;-54
2023/09/26 10:54:30;;;;;;;;;;;20.90;61.40;;;;;;5114602;28;19918;-54
2023/09/26 10:56:58;;;;;;;;;;;20.90;61.30;;;;;;5114701;28;19908;-53
2023/09/26 10:59:26;;;;;;;;;;;20.90;61.70;;;;;;5114666;28;19947;-53
2023/09/26 11:01:53;;;;;;;;;;;20.80;61.60;;;;;;5114511;28;19908;-53
2023/09/26 11:04:19;;;;;;;;;;;20.80;61.40;;;;;;5114413;28;19908;-53
2023/09/26 11:06:44;;;;;;;;;;;20.70;61.50;;;;;;5114426;28;20308;-54
2023/09/26 11:09:11;;;;;;;;;;;20.80;62.10;;;;;;5114341;28;19976;-55
2023/09/26 11:11:37;;;;;;;;;;;20.80;62.20;;;;;;5114360;28;20002;-54
2023/09/26 11:14:03;;;;;;;;;;;20.70;62.40;;;;;;5114220;28;20006;-54
2023/09/26 11:16:29;;;;;;;;;;;20.70;62.80;;;;;;5114214;28;19964;-54
2023/09/26 11:18:54;;;;;;;;;;;20.70;62.90;;;;;;5114288;28;20055;-55
2023/09/26 11:21:20;;;;;;;;;;;20.70;62.80;;;;;;5113766;28;20091;-53
2023/09/26 11:23:45;;;;;;;;;;;20.70;62.70;;;;;;5114032;28;20292;-54
2023/09/26 11:26:11;;;;;;;;;;;20.70;62.90;;;;;;5113861;28;19908;-55
2023/09/26 11:28:37;;;;;;;;;;;20.80;62.60;;;;;;5114101;28;19908;-54
2023/09/26 11:31:02;;;;;;;;;;;20.80;62.90;;;;;;5095673;28;19951;-54
2023/09/26 11:33:28;;;;;;;;;;;20.90;62.90;;;;;;5095655;28;20315;-54
2023/09/26 11:35:53;;;;;;;;;;;21.00;62.70;;;;;;5078632;28;20361;-54
2023/09/26 11:38:19;;;;;;;;;;;21.10;62.30;;;;;;5113814;28;19940;-55
2023/09/26 11:40:44;;;;;;;;;;;21.30;61.90;;;;;;5113833;28;19931;-54
2023/09/26 11:43:10;;;;;;;;;;;21.50;61.40;;;;;;5113892;28;19985;-54
2023/09/26 11:45:37;;;;;;;;;;;21.50;61.00;;;;;;5113752;28;20359;-54
2023/09/26 11:48:03;;;;;;;;;;;21.50;61.10;;;;;;5113670;28;19915;-55
2023/09/26 11:50:28;;;;;;;;;;;21.40;61.10;;;;;;5113426;28;19907;-54
2023/09/26 11:53:03;;;;;;;;;;;21.40;61.20;;;;;;5113488;28;20026;-54
2023/09/26 11:55:31;;;;;;;;;;;21.40;61.10;;;;;;5095091;28;19955;-54
2023/09/26 11:57:57;;;;;;;;;;;21.50;61.80;;;;;;5113473;28;19960;-53
2023/09/26 12:00:23;;;;;;;;;;;21.60;60.80;;;;;;5113557;28;19994;-54
2023/09/26 12:02:51;;;;;;;;;;;21.60;60.60;;;;;;5113582;28;19946;-55
2023/09/26 12:05:23;;;;;;;;;;;21.70;60.60;;;;;;5113603;28;19908;-54
2023/09/26 12:07:48;;;;;;;;;;;21.70;60.40;;;;;;5113302;28;19911;-54
2023/09/26 12:10:14;;;;;;;;;;;21.80;60.30;;;;;;5113176;28;20261;-54
2023/09/26 12:12:40;;;;;;;;;;;21.70;60.30;;;;;;5113462;28;19915;-54
2023/09/26 12:15:34;;;;;;;;;;;21.70;60.20;;;;;;5113178;28;19912;-55
2023/09/26 12:18:00;;;;;;;;;;;21.80;60.20;;;;;;5095726;28;19915;-54
2023/09/26 12:20:25;;;;;;;;;;;21.80;60.30;;;;;;5113356;28;19908;-54
2023/09/26 12:22:51;;;;;;;;;;;21.70;60.40;;;;;;5113292;28;19907;-55
2023/09/26 12:25:17;;;;;;;;;;;21.80;60.50;;;;;;5113172;28;19912;-53
2023/09/26 12:27:44;;;;;;;;;;;21.70;60.40;;;;;;5113161;28;19969;-54
2023/09/26 12:30:10;;;;;;;;;;;21.70;60.70;;;;;;5113236;28;19908;-55
2023/09/26 12:32:35;;;;;;;;;;;21.70;60.60;;;;;;5113103;28;19953;-55
2023/09/26 12:35:01;;;;;;;;;;;21.70;60.70;;;;;;5116483;28;19961;-54
2023/09/26 12:37:26;;;;;;;;;;;21.70;60.90;;;;;;5117292;28;19908;-53
2023/09/26 12:39:52;;;;;;;;;;;21.60;61.00;;;;;;5117062;28;20002;-54
2023/09/26 12:42:17;;;;;;;;;;;21.60;61.00;;;;;;5117196;28;19908;-55
2023/09/26 12:44:43;;;;;;;;;;;21.70;60.90;;;;;;5117372;28;19911;-54
2023/09/26 12:47:08;;;;;;;;;;;21.80;60.50;;;;;;5117162;28;19980;-54
2023/09/26 12:49:33;;;;;;;;;;;21.80;60.30;;;;;;5117158;28;19907;-55
2023/09/26 12:51:59;;;;;;;;;;;21.80;60.20;;;;;;5116885;28;19924;-55
2023/09/26 12:54:25;;;;;;;;;;;21.80;60.00;;;;;;5098634;28;19912;-55
2023/09/26 12:56:51;;;;;;;;;;;21.90;60.00;;;;;;5099021;28;20352;-55
2023/09/26 12:59:16;;;;;;;;;;;21.90;59.90;;;;;;5098857;28;20383;-54
2023/09/26 13:01:42;;;;;;;;;;;21.90;60.40;;;;;;5116949;28;20003;-55
2023/09/26 13:04:07;;;;;;;;;;;21.80;59.80;;;;;;5116930;28;19934;-55
2023/09/26 13:06:33;;;;;;;;;;;21.80;60.10;;;;;;5116812;28;19911;-55
2023/09/26 13:08:59;;;;;;;;;;;21.70;60.10;;;;;;5116722;28;20222;-55
2023/09/26 13:11:25;;;;;;;;;;;21.70;59.80;;;;;;5116925;28;19930;-54
2023/09/26 13:13:50;;;;;;;;;;;21.70;59.80;;;;;;5116527;28;20439;-55
2023/09/26 13:16:16;;;;;;;;;;;21.80;59.60;;;;;;5116641;28;19915;-55
2023/09/26 13:18:41;;;;;;;;;;;21.80;59.50;;;;;;5116507;28;20310;-54
2023/09/26 13:21:06;;;;;;;;;;;21.90;59.30;;;;;;5116360;28;19943;-54
2023/09/26 13:23:33;;;;;;;;;;;22.00;59.10;;;;;;5116500;28;19912;-55
2023/09/26 13:25:59;;;;;;;;;;;21.90;59.20;;;;;;5116322;28;19960;-55
2023/09/26 13:28:25;;;;;;;;;;;21.80;59.40;;;;;;5116193;28;20006;-54
2023/09/26 13:30:50;;;;;;;;;;;21.90;59.40;;;;;;5116258;28;20000;-54
2023/09/26 13:33:16;;;;;;;;;;;21.90;59.50;;;;;;5116232;28;19915;-54
2023/09/26 13:35:42;;;;;;;;;;;21.80;59.50;;;;;;5116370;28;19944;-55
2023/09/26 13:38:07;;;;;;;;;;;21.90;59.50;;;;;;5116396;28;20391;-55
2023/09/26 13:40:33;;;;;;;;;;;21.90;59.30;;;;;;5097951;28;19912;-54
2023/09/26 13:42:58;;;;;;;;;;;21.80;59.50;;;;;;5115967;28;19908;-56
2023/09/26 13:45:24;;;;;;;;;;;21.90;59.30;;;;;;5116084;28;20328;-55
2023/09/26 13:47:49;;;;;;;;;;;21.90;59.30;;;;;;5116117;28;20367;-55
2023/09/26 13:50:15;;;;;;;;;;;21.90;59.30;;;;;;5115946;28;19908;-54
2023/09/26 13:52:40;;;;;;;;;;;21.90;59.50;;;;;;5115755;28;19968;-55
2023/09/26 13:55:06;;;;;;;;;;;21.90;59.40;;;;;;5115806;28;19912;-54
2023/09/26 13:57:32;;;;;;;;;;;21.80;59.60;;;;;;5115890;28;19958;-55
2023/09/26 13:59:57;;;;;;;;;;;21.70;60.00;;;;;;5115713;28;19919;-55
2023/09/26 14:02:23;;;;;;;;;;;21.70;60.00;;;;;;5115549;28;19907;-55
2023/09/26 14:04:48;;;;;;;;;;;21.70;60.10;;;;;;5115890;28;19908;-55
2023/09/26 14:07:14;;;;;;;;;;;21.80;60.00;;;;;;5097430;28;19946;-55
2023/09/26 14:09:39;;;;;;;;;;;21.70;60.00;;;;;;5115896;28;19907;-54